createdAt,value
2022-12-17T00:00:29.459Z,2.90
2022-12-17T00:03:19.139Z,2.90
2022-12-17T00:06:05.217Z,2.90
2022-12-17T00:08:50.752Z,3.00
2022-12-17T00:11:37.216Z,3.00
2022-12-17T00:14:22.490Z,2.90
2022-12-17T00:17:08.053Z,2.90
2022-12-17T00:19:53.319Z,2.90
2022-12-17T00:22:42.001Z,2.90
2022-12-17T00:25:28.343Z,2.90
2022-12-17T00:28:13.650Z,2.90
2022-12-17T00:30:59.036Z,2.90
2022-12-17T00:33:44.510Z,2.90
2022-12-17T00:36:31.503Z,2.90
2022-12-17T00:39:18.505Z,2.90
2022-12-17T00:42:04.065Z,2.90
2022-12-17T00:44:49.272Z,2.90
2022-12-17T00:47:34.927Z,2.90
2022-12-17T00:50:21.133Z,2.90
2022-12-17T00:53:10.761Z,2.90
2022-12-17T00:55:56.210Z,2.80
2022-12-17T00:58:42.332Z,2.80
2022-12-17T01:01:28.623Z,2.80
2022-12-17T01:04:13.912Z,2.70
2022-12-17T01:07:00.167Z,2.70
2022-12-17T01:09:46.659Z,2.70
2022-12-17T01:12:32.067Z,2.70
2022-12-17T01:15:17.620Z,2.70
2022-12-17T01:18:03.148Z,2.70
2022-12-17T01:20:48.882Z,2.70
2022-12-17T01:23:34.661Z,2.70
2022-12-17T01:26:20.124Z,2.70
2022-12-17T01:29:05.605Z,2.70
2022-12-17T01:31:51.944Z,2.60
2022-12-17T01:34:37.574Z,2.60
2022-12-17T01:37:23.313Z,2.60
2022-12-17T01:40:08.924Z,2.60
2022-12-17T01:43:02.248Z,2.60
2022-12-17T01:46:01.966Z,2.50
2022-12-17T01:49:03.179Z,2.50
2022-12-17T01:51:49.947Z,2.50
2022-12-17T01:54:37.263Z,2.50
2022-12-17T01:57:26.552Z,2.40
2022-12-17T02:00:32.381Z,2.40
2022-12-17T02:03:19.287Z,2.30
2022-12-17T02:06:22.830Z,2.30
2022-12-17T02:09:34.431Z,2.20
2022-12-17T02:12:35.906Z,2.10
2022-12-17T02:15:40.198Z,2.10
2022-12-17T02:18:39.657Z,2.00
2022-12-17T02:21:33.294Z,2.00
2022-12-17T02:24:46.768Z,2.00
2022-12-17T02:27:33.966Z,2.10
2022-12-17T02:30:23.555Z,2.10
2022-12-17T02:33:11.689Z,2.10
2022-12-17T02:36:12.447Z,2.10
2022-12-17T02:39:00.599Z,2.10
2022-12-17T02:41:52.831Z,2.10
2022-12-17T02:44:40.297Z,2.10
2022-12-17T02:47:28.273Z,2.10
2022-12-17T02:50:13.988Z,2.00
2022-12-17T02:53:04.123Z,2.00
2022-12-17T02:55:50.065Z,2.00
2022-12-17T02:58:36.845Z,2.00
2022-12-17T03:01:22.602Z,1.90
2022-12-17T03:04:08.292Z,1.90
2022-12-17T03:06:53.596Z,1.90
2022-12-17T03:09:38.824Z,1.90
2022-12-17T03:12:24.378Z,1.80
2022-12-17T03:15:10.054Z,1.60
2022-12-17T03:17:58.430Z,1.50
2022-12-17T03:20:43.930Z,1.50
2022-12-17T03:23:30.974Z,1.50
2022-12-17T03:26:21.098Z,1.50
2022-12-17T03:29:07.155Z,1.50
2022-12-17T03:31:53.111Z,1.50
2022-12-17T03:34:38.428Z,1.50
2022-12-17T03:37:23.867Z,1.40
2022-12-17T03:40:10.096Z,1.30
2022-12-17T03:42:55.648Z,1.30
2022-12-17T03:45:41.302Z,1.20
2022-12-17T03:48:30.256Z,1.20
2022-12-17T03:51:16.488Z,1.20
2022-12-17T03:54:02.441Z,1.20
2022-12-17T03:56:48.398Z,1.00
2022-12-17T03:59:34.028Z,1.00
2022-12-17T04:02:20.457Z,1.00
2022-12-17T04:05:06.138Z,0.90
2022-12-17T04:07:51.744Z,0.90
2022-12-17T04:10:37.169Z,0.80
2022-12-17T04:13:23.112Z,0.70
2022-12-17T04:16:09.705Z,0.60
2022-12-17T04:18:55.117Z,0.60
2022-12-17T04:21:41.334Z,0.70
2022-12-17T04:24:26.846Z,0.60
2022-12-17T04:27:12.340Z,0.50
2022-12-17T04:29:57.955Z,0.50
2022-12-17T04:32:43.607Z,0.40
2022-12-17T04:35:29.236Z,0.40
2022-12-17T04:38:14.794Z,0.30
2022-12-17T04:41:00.134Z,0.30
2022-12-17T04:43:45.679Z,0.40
2022-12-17T04:46:32.488Z,0.40
2022-12-17T04:49:17.912Z,0.40
2022-12-17T04:52:03.165Z,0.40
2022-12-17T04:54:48.313Z,0.30
2022-12-17T04:57:33.740Z,0.40
2022-12-17T05:00:20.771Z,0.30
2022-12-17T05:03:06.166Z,0.30
2022-12-17T05:05:51.597Z,0.20
2022-12-17T05:08:41.368Z,0.20
2022-12-17T05:11:26.951Z,0.20
2022-12-17T05:14:12.508Z,0.20
2022-12-17T05:16:59.172Z,0.20
2022-12-17T05:19:44.633Z,0.30
2022-12-17T05:22:29.929Z,0.30
2022-12-17T05:25:15.319Z,0.10
2022-12-17T05:28:00.958Z,0.10
2022-12-17T05:30:46.105Z,0.10
2022-12-17T05:33:31.375Z,0.10
2022-12-17T05:36:19.466Z,0.00
2022-12-17T05:39:06.472Z,-0.10
2022-12-17T05:41:51.964Z,-0.10
2022-12-17T05:44:37.321Z,-0.10
2022-12-17T05:47:22.597Z,-0.20
2022-12-17T05:50:08.401Z,-0.20
2022-12-17T05:52:53.573Z,-0.10
2022-12-17T05:55:39.011Z,-0.20
2022-12-17T05:58:27.947Z,-0.30
2022-12-17T06:01:17.573Z,-0.30
2022-12-17T06:04:03.051Z,-0.30
2022-12-17T06:06:48.781Z,-0.30
2022-12-17T06:09:34.521Z,-0.20
2022-12-17T06:12:20.688Z,-0.40
2022-12-17T06:15:06.303Z,-0.40
2022-12-17T06:17:51.739Z,-0.40
2022-12-17T06:20:37.353Z,-0.40
2022-12-17T06:23:25.480Z,-0.50
2022-12-17T06:26:15.199Z,-0.40
2022-12-17T06:29:02.564Z,-0.50
2022-12-17T06:31:52.568Z,-0.60
2022-12-17T06:34:37.871Z,-0.60
2022-12-17T06:37:23.249Z,-0.70
2022-12-17T06:40:08.856Z,-0.70
2022-12-17T06:43:14.199Z,-0.60
2022-12-17T06:45:59.751Z,-0.70
2022-12-17T06:48:45.409Z,-0.70
2022-12-17T06:51:44.661Z,-0.70
2022-12-17T06:54:30.449Z,-0.70
2022-12-17T06:57:15.758Z,-0.70
2022-12-17T07:00:01.768Z,-0.70
2022-12-17T07:03:04.078Z,-0.80
2022-12-17T07:05:49.416Z,-0.80
2022-12-17T07:08:35.027Z,-0.90
2022-12-17T07:11:21.330Z,-1.00
2022-12-17T07:14:06.560Z,-1.00
2022-12-17T07:16:51.928Z,-1.10
2022-12-17T07:19:37.447Z,-1.00
2022-12-17T07:22:23.108Z,-1.10
2022-12-17T07:25:08.444Z,-1.10
2022-12-17T07:27:54.016Z,-1.30
2022-12-17T07:30:39.474Z,-1.30
2022-12-17T07:33:27.896Z,-1.60
2022-12-17T07:36:14.296Z,-1.80
2022-12-17T07:39:00.775Z,-1.80
2022-12-17T07:41:46.083Z,-2.00
2022-12-17T07:44:31.601Z,-2.00
2022-12-17T07:47:17.334Z,-2.10
2022-12-17T07:50:02.629Z,-2.30
2022-12-17T07:52:48.201Z,-2.40
2022-12-17T07:55:33.894Z,-2.40
2022-12-17T07:58:21.411Z,-2.40
2022-12-17T08:01:06.760Z,-2.40
2022-12-17T08:03:52.091Z,-2.50
2022-12-17T08:06:37.439Z,-2.50
2022-12-17T08:09:23.692Z,-2.50
2022-12-17T08:12:13.647Z,-2.30
2022-12-17T08:14:59.275Z,-2.20
2022-12-17T08:17:44.728Z,-2.30
2022-12-17T08:20:30.582Z,-2.30
2022-12-17T08:23:24.956Z,-2.30
2022-12-17T08:26:11.813Z,-2.30
2022-12-17T08:28:57.326Z,-2.30
2022-12-17T08:31:59.887Z,-2.30
2022-12-17T08:34:47.145Z,-2.20
2022-12-17T08:37:32.983Z,-2.10
2022-12-17T08:40:18.289Z,-2.00
2022-12-17T08:43:03.870Z,-1.80
2022-12-17T08:45:53.366Z,-1.60
2022-12-17T08:48:39.039Z,-1.40
2022-12-17T08:51:24.536Z,-1.30
2022-12-17T08:54:11.180Z,-1.20
2022-12-17T08:56:56.734Z,-1.20
2022-12-17T08:59:42.743Z,-1.10
2022-12-17T09:02:30.088Z,-1.10
2022-12-17T09:05:15.484Z,-1.10
2022-12-17T09:08:00.761Z,-1.10
2022-12-17T09:10:46.277Z,-1.00
2022-12-17T09:13:31.849Z,-1.00
2022-12-17T09:16:17.632Z,-1.10
2022-12-17T09:19:02.961Z,-1.00
2022-12-17T09:21:49.856Z,-0.90
2022-12-17T09:24:35.299Z,-0.90
2022-12-17T09:27:21.003Z,-0.90
2022-12-17T09:30:08.197Z,-0.80
2022-12-17T09:32:56.598Z,-0.70
2022-12-17T09:35:42.234Z,-0.70
2022-12-17T09:38:36.157Z,-0.70
2022-12-17T09:41:45.016Z,-0.80
2022-12-17T09:45:03.122Z,-0.70
2022-12-17T09:48:13.582Z,-0.60
2022-12-17T09:50:58.876Z,-0.70
2022-12-17T09:54:02.089Z,-0.60
2022-12-17T09:56:50.004Z,-0.70
2022-12-17T09:59:55.586Z,-0.70
2022-12-17T10:02:46.704Z,-0.70
2022-12-17T10:05:43.148Z,-0.70
2022-12-17T10:08:33.034Z,-0.70
2022-12-17T10:11:43.037Z,-0.70
2022-12-17T10:14:35.990Z,-0.70
2022-12-17T10:17:22.261Z,-0.70
2022-12-17T10:20:13.362Z,-0.70
2022-12-17T10:23:07.644Z,-0.80
2022-12-17T10:25:56.185Z,-0.80
2022-12-17T10:28:43.449Z,-0.80
2022-12-17T10:31:29.984Z,-0.80
2022-12-17T10:34:16.351Z,-0.90
2022-12-17T10:37:10.389Z,-0.90
2022-12-17T10:39:57.106Z,-0.80
2022-12-17T10:42:56.931Z,-0.80
2022-12-17T10:45:48.688Z,-0.80
2022-12-17T10:48:48.644Z,-0.90
2022-12-17T10:51:40.699Z,-0.80
2022-12-17T10:54:42.628Z,-0.80
2022-12-17T10:57:51.215Z,-0.90
2022-12-17T11:00:36.564Z,-0.90
2022-12-17T11:03:23.770Z,-0.80
2022-12-17T11:06:13.618Z,-0.70
2022-12-17T11:09:00.236Z,-0.80
2022-12-17T11:11:45.999Z,-0.80
2022-12-17T11:14:33.219Z,-0.80
2022-12-17T11:17:23.748Z,-0.80
2022-12-17T11:20:17.818Z,-0.80
2022-12-17T11:23:17.004Z,-0.70
2022-12-17T11:26:08.883Z,-0.60
2022-12-17T11:29:11.722Z,-0.60
2022-12-17T11:32:21.812Z,-0.40
2022-12-17T11:35:28.338Z,-0.50
2022-12-17T11:38:25.666Z,-0.40
2022-12-17T11:41:17.448Z,-0.40
2022-12-17T11:44:11.005Z,-0.40
2022-12-17T11:47:20.668Z,-0.50
2022-12-17T11:50:25.307Z,-0.40
2022-12-17T11:53:28.228Z,-0.40
2022-12-17T11:56:28.327Z,-0.30
2022-12-17T11:59:28.218Z,-0.10
2022-12-17T12:02:36.471Z,0.00
2022-12-17T12:06:11.646Z,-0.10
2022-12-17T12:09:28.085Z,-0.10
2022-12-17T12:12:21.841Z,-0.20
2022-12-17T12:15:07.076Z,-0.20
2022-12-17T12:18:07.406Z,-0.10
2022-12-17T12:21:18.259Z,-0.10
2022-12-17T12:24:36.113Z,-0.10
2022-12-17T12:27:36.580Z,0.00
2022-12-17T12:30:36.775Z,0.30
2022-12-17T12:33:46.012Z,0.40
2022-12-17T12:36:35.721Z,0.40
2022-12-17T12:39:21.437Z,0.30
2022-12-17T12:42:22.390Z,0.30
2022-12-17T12:45:49.381Z,0.20
2022-12-17T12:49:13.110Z,0.10
2022-12-17T12:51:58.545Z,0.00
2022-12-17T12:54:49.172Z,0.00
2022-12-17T12:58:07.237Z,-0.10
2022-12-17T13:01:12.888Z,-0.20
2022-12-17T13:04:11.284Z,-0.10
2022-12-17T13:06:48.964Z,-0.20
2022-12-17T13:09:15.748Z,0.00
2022-12-17T13:11:53.675Z,-0.10
2022-12-17T13:14:26.817Z,-0.20
2022-12-17T13:17:14.546Z,-0.20
2022-12-17T13:19:43.730Z,-0.20
2022-12-17T13:22:23.407Z,-0.20
2022-12-17T13:25:30.675Z,-0.20
2022-12-17T13:27:58.489Z,-0.20
2022-12-17T13:31:00.458Z,-0.20
2022-12-17T13:33:46.304Z,-0.30
2022-12-17T13:36:46.120Z,-0.20
2022-12-17T13:39:36.473Z,-0.30
2022-12-17T13:42:04.195Z,-0.30
2022-12-17T13:44:46.704Z,-0.30
2022-12-17T13:47:26.344Z,-0.30
2022-12-17T13:50:31.688Z,-0.40
2022-12-17T13:52:45.638Z,-0.40
2022-12-17T13:55:25.474Z,-0.30
2022-12-17T13:57:53.510Z,-0.20
2022-12-17T14:00:30.445Z,-0.30
2022-12-17T14:02:58.556Z,-0.30
2022-12-17T14:05:33.321Z,-0.30
2022-12-17T14:08:02.901Z,-0.20
2022-12-17T14:10:31.600Z,-0.20
2022-12-17T14:13:13.341Z,-0.10
2022-12-17T14:15:49.060Z,-0.10
2022-12-17T14:18:20.717Z,-0.10
2022-12-17T14:20:49.509Z,-0.10
2022-12-17T14:23:36.629Z,-0.10
2022-12-17T14:26:03.464Z,-0.10
2022-12-17T14:28:36.142Z,-0.10
2022-12-17T14:34:13.343Z,0.00
2022-12-17T14:36:41.861Z,0.00
2022-12-17T14:39:23.946Z,-0.10
2022-12-17T14:42:09.771Z,0.00
2022-12-17T14:44:48.137Z,0.00
2022-12-17T14:47:24.984Z,0.00
2022-12-17T14:50:02.105Z,0.00
2022-12-17T14:52:58.735Z,0.00
2022-12-17T14:55:57.902Z,0.00
2022-12-17T14:58:27.767Z,-0.10
2022-12-17T15:01:07.156Z,-0.10
2022-12-17T15:03:39.980Z,-0.10
2022-12-17T15:06:09.675Z,-0.10
2022-12-17T15:08:49.347Z,-0.10
2022-12-17T15:11:19.467Z,-0.10
2022-12-17T15:13:50.228Z,-0.10
2022-12-17T15:16:20.068Z,-0.10
2022-12-17T15:18:48.413Z,-0.10
2022-12-17T15:21:16.749Z,-0.20
2022-12-17T15:23:44.480Z,-0.10
2022-12-17T15:26:11.801Z,-0.30
2022-12-17T15:28:38.818Z,-0.30
2022-12-17T15:31:05.908Z,-0.30
2022-12-17T15:33:32.805Z,-0.40
2022-12-17T15:36:01.027Z,-0.40
2022-12-17T15:38:27.775Z,-0.40
2022-12-17T15:40:55.610Z,-0.40
2022-12-17T15:43:22.364Z,-0.50
2022-12-17T15:45:52.033Z,-0.40
2022-12-17T15:48:23.415Z,-0.40
2022-12-17T15:50:50.289Z,-0.40
2022-12-17T15:53:17.389Z,-0.50
2022-12-17T15:55:45.299Z,-0.50
2022-12-17T15:58:12.200Z,-0.50
2022-12-17T16:00:39.006Z,-0.60
2022-12-17T16:03:07.268Z,-0.60
2022-12-17T16:05:34.050Z,-0.40
2022-12-17T16:08:02.580Z,-0.60
2022-12-17T16:10:30.150Z,-0.70
2022-12-17T16:12:57.081Z,-0.70
2022-12-17T16:15:23.889Z,-0.80
2022-12-17T16:17:50.844Z,-0.80
2022-12-17T16:20:18.673Z,-0.80
2022-12-17T16:22:45.531Z,-0.90
2022-12-17T16:25:12.542Z,-0.90
2022-12-17T16:27:39.683Z,-1.00
2022-12-17T16:30:07.562Z,-1.00
2022-12-17T16:32:36.638Z,-1.00
2022-12-17T16:35:05.828Z,-1.00
2022-12-17T16:37:32.607Z,-1.00
2022-12-17T16:40:00.341Z,-1.10
2022-12-17T16:42:27.471Z,-1.10
2022-12-17T16:44:54.191Z,-1.30
2022-12-17T16:47:20.912Z,-1.30
2022-12-17T16:49:50.611Z,-1.40
2022-12-17T16:52:17.425Z,-1.50
2022-12-17T16:54:44.132Z,-1.50
2022-12-17T16:57:10.845Z,-1.50
2022-12-17T16:59:39.738Z,-1.50
2022-12-17T17:02:13.500Z,-1.50
2022-12-17T17:04:40.301Z,-1.50
2022-12-17T17:07:07.054Z,-1.50
2022-12-17T17:09:33.890Z,-1.50
2022-12-17T17:12:01.945Z,-1.50
2022-12-17T17:14:28.684Z,-1.50
2022-12-17T17:16:55.352Z,-1.60
2022-12-17T17:19:22.685Z,-1.60
2022-12-17T17:21:52.634Z,-1.70
2022-12-17T17:24:22.317Z,-1.70
2022-12-17T17:26:51.477Z,-1.60
2022-12-17T17:29:18.583Z,-1.60
2022-12-17T17:34:32.165Z,-1.60
2022-12-17T17:36:58.856Z,-1.60
2022-12-17T17:39:25.918Z,-1.60
2022-12-17T17:41:54.029Z,-1.60
2022-12-17T17:44:21.128Z,-1.60
2022-12-17T17:46:47.875Z,-1.70
2022-12-17T17:49:15.136Z,-1.80
2022-12-17T17:54:30.238Z,-1.90
2022-12-17T17:56:57.053Z,-2.00
2022-12-17T17:59:29.595Z,-2.00
2022-12-17T18:02:00.441Z,-2.10
2022-12-17T18:04:27.785Z,-2.10
2022-12-17T18:09:42.459Z,-2.10
2022-12-17T18:12:27.801Z,-2.10
2022-12-17T18:17:41.537Z,-2.10
2022-12-17T18:20:09.779Z,-2.10
2022-12-17T18:22:36.974Z,-2.10
2022-12-17T18:25:05.169Z,-2.10
2022-12-17T18:27:31.857Z,-2.10
2022-12-17T18:29:58.838Z,-2.10
2022-12-17T18:32:27.053Z,-2.10
2022-12-17T18:34:53.857Z,-2.00
2022-12-17T18:37:20.671Z,-2.10
2022-12-17T18:39:48.379Z,-2.10
2022-12-17T18:42:33.638Z,-2.20
2022-12-17T18:45:00.439Z,-2.20
2022-12-17T18:47:28.361Z,-2.20
2022-12-17T18:49:56.351Z,-2.20
2022-12-17T18:52:24.373Z,-2.30
2022-12-17T18:54:51.179Z,-2.30
2022-12-17T18:57:17.949Z,-2.40
2022-12-17T18:59:44.622Z,-2.40
2022-12-17T19:02:14.813Z,-2.40
2022-12-17T19:04:42.292Z,-2.50
2022-12-17T19:07:09.253Z,-2.50
2022-12-17T19:09:36.630Z,-2.50
2022-12-17T19:12:07.864Z,-2.50
2022-12-17T19:14:35.084Z,-2.50
2022-12-17T19:17:02.214Z,-2.60
2022-12-17T19:19:29.269Z,-2.60
2022-12-17T19:21:56.932Z,-2.60
2022-12-17T19:24:24.051Z,-2.60
2022-12-17T19:26:51.810Z,-2.60
2022-12-17T19:29:20.475Z,-2.50
2022-12-17T19:31:48.094Z,-2.50
2022-12-17T19:34:17.953Z,-2.50
2022-12-17T19:36:45.593Z,-2.50
2022-12-17T19:39:18.189Z,-2.50
2022-12-17T19:41:45.165Z,-2.50
2022-12-17T19:44:14.456Z,-2.40
2022-12-17T19:46:41.724Z,-2.50
2022-12-17T19:49:11.249Z,-2.50
2022-12-17T19:51:40.410Z,-2.60
2022-12-17T19:54:09.254Z,-2.60
2022-12-17T19:56:38.078Z,-2.50
2022-12-17T19:59:07.506Z,-2.50
2022-12-17T20:01:41.534Z,-2.50
2022-12-17T20:04:10.392Z,-2.50
2022-12-17T20:06:37.064Z,-2.40
2022-12-17T20:09:07.355Z,-2.40
2022-12-17T20:11:35.380Z,-2.40
2022-12-17T20:14:09.066Z,-2.40
2022-12-17T20:16:39.323Z,-2.40
2022-12-17T20:19:08.130Z,-2.50
2022-12-17T20:21:35.052Z,-2.50
2022-12-17T20:24:02.059Z,-2.50
2022-12-17T20:26:28.829Z,-2.50
2022-12-17T20:28:55.919Z,-2.50
2022-12-17T20:31:22.825Z,-2.50
2022-12-17T20:33:49.603Z,-2.50
2022-12-17T20:36:18.353Z,-2.50
2022-12-17T20:38:45.604Z,-2.50
2022-12-17T20:41:18.693Z,-2.50
2022-12-17T20:43:46.256Z,-2.60
2022-12-17T20:46:13.655Z,-2.60
2022-12-17T20:48:43.869Z,-2.60
2022-12-17T20:51:22.833Z,-2.70
2022-12-17T20:53:50.023Z,-2.60
2022-12-17T20:56:20.683Z,-2.60
2022-12-17T20:58:47.671Z,-2.60
2022-12-17T21:01:21.150Z,-2.70
2022-12-17T21:03:50.601Z,-2.60
2022-12-17T21:06:18.577Z,-2.70
2022-12-17T21:08:50.209Z,-2.70
2022-12-17T21:11:20.518Z,-2.70
2022-12-17T21:13:47.441Z,-2.70
2022-12-17T21:16:17.993Z,-2.80
2022-12-17T21:18:45.269Z,-2.80
2022-12-17T21:21:16.358Z,-2.80
2022-12-17T21:23:48.263Z,-2.90
2022-12-17T21:26:22.535Z,-2.90
2022-12-17T21:28:52.399Z,-2.90
2022-12-17T21:31:25.005Z,-2.90
2022-12-17T21:33:54.763Z,-2.80
2022-12-17T21:36:22.501Z,-2.90
2022-12-17T21:38:50.185Z,-3.00
2022-12-17T21:41:20.329Z,-3.00
2022-12-17T21:43:47.077Z,-3.00
2022-12-17T21:46:14.307Z,-3.10
2022-12-17T21:48:42.863Z,-3.20
2022-12-17T21:51:12.238Z,-3.30
2022-12-17T21:53:42.775Z,-3.30
2022-12-17T21:56:15.607Z,-3.30
2022-12-17T21:58:44.233Z,-3.30
2022-12-17T22:01:24.009Z,-3.20
2022-12-17T22:03:53.818Z,-3.30
2022-12-17T22:06:24.009Z,-3.50
2022-12-17T22:09:03.122Z,-3.60
2022-12-17T22:11:43.271Z,-3.70
2022-12-17T22:14:18.819Z,-3.70
2022-12-17T22:16:49.640Z,-3.80
2022-12-17T22:19:23.992Z,-3.80
2022-12-17T22:21:53.796Z,-3.80
2022-12-17T22:24:26.691Z,-3.80
2022-12-17T22:27:00.327Z,-3.80
2022-12-17T22:29:49.269Z,-3.90
2022-12-17T22:32:34.711Z,-3.90
2022-12-17T22:36:47.909Z,-4.00
2022-12-17T22:41:00.109Z,-4.00
2022-12-17T22:44:20.073Z,-4.00
2022-12-17T22:44:45.005Z,-4.10
2022-12-17T22:46:19.490Z,-4.00
2022-12-17T22:48:46.824Z,-4.00
2022-12-17T22:51:19.233Z,-4.00
2022-12-17T22:54:04.782Z,-4.00
2022-12-17T22:56:56.969Z,-4.00
2022-12-17T22:59:24.373Z,-4.00
2022-12-17T23:01:51.173Z,-3.90
2022-12-17T23:04:18.114Z,-4.00
2022-12-17T23:06:45.945Z,-3.90
2022-12-17T23:09:16.108Z,-3.90
2022-12-17T23:11:42.819Z,-3.90
2022-12-17T23:14:11.089Z,-3.90
2022-12-17T23:16:38.807Z,-3.90
2022-12-17T23:19:07.046Z,-3.90
2022-12-17T23:21:34.467Z,-3.90
2022-12-17T23:24:01.280Z,-3.90
2022-12-17T23:26:36.380Z,-3.80
2022-12-17T23:29:08.143Z,-3.80
2022-12-17T23:31:38.362Z,-3.80
2022-12-17T23:34:05.297Z,-3.80
2022-12-17T23:36:32.820Z,-3.60
2022-12-17T23:38:59.890Z,-3.80
2022-12-17T23:41:29.624Z,-3.80
2022-12-17T23:43:56.830Z,-3.80
2022-12-17T23:46:25.191Z,-3.80
2022-12-17T23:48:52.058Z,-3.90
2022-12-17T23:51:21.726Z,-3.90
2022-12-17T23:53:48.820Z,-3.80
2022-12-17T23:56:21.992Z,-3.80
2022-12-17T23:58:53.159Z,-3.80
